Time;durP1;ratioP1;P1;durP2;ratioP2;P2;SDS_P1;SDS_P2;PMS_P1;PMS_P2;Temp;Humidity;BMP_temperature;BMP_pressure;BME280_temperature;BME280_humidity;BME280_pressure;Samples;Min_cycle;Max_cycle;Signal;HPM_P1;HPM_P2
2023/01/18 00:01:03;;;;;;;;;;;-2.40;99.90;;;;;;5071649;28;19904;-70
2023/01/18 00:03:32;;;;;;;;;;;-2.40;99.90;;;;;;5070985;28;19912;-70
2023/01/18 00:06:00;;;;;;;;;;;-2.40;99.90;;;;;;5071705;28;19911;-71
2023/01/18 00:08:26;;;;;;;;;;;-2.40;99.90;;;;;;5071089;28;19904;-71
2023/01/18 00:10:52;;;;;;;;;;;-2.40;99.90;;;;;;5070904;28;19908;-70
2023/01/18 00:13:17;;;;;;;;;;;-2.50;99.90;;;;;;5083789;28;19916;-71
2023/01/18 00:15:42;;;;;;;;;;;-2.40;99.90;;;;;;5070463;28;19905;-70
2023/01/18 00:18:08;;;;;;;;;;;-2.50;99.90;;;;;;5083250;28;19908;-71
2023/01/18 00:20:33;;;;;;;;;;;-1.80;99.90;;;;;;5070768;28;19908;-70
2023/01/18 00:23:00;;;;;;;;;;;-2.50;99.90;;;;;;5089791;28;20052;-70
2023/01/18 00:25:26;;;;;;;;;;;-2.40;99.90;;;;;;5077193;28;19904;-71
2023/01/18 00:27:53;;;;;;;;;;;-2.50;99.90;;;;;;5089838;28;19990;-71
2023/01/18 00:30:20;;;;;;;;;;;-2.50;99.90;;;;;;5089725;28;19911;-71
2023/01/18 00:32:46;;;;;;;;;;;-2.50;99.90;;;;;;5090400;28;20276;-71
2023/01/18 00:35:12;;;;;;;;;;;-2.40;99.90;;;;;;5090363;28;19904;-69
2023/01/18 00:37:38;;;;;;;;;;;-2.50;99.90;;;;;;5090084;28;19919;-70
2023/01/18 00:40:04;;;;;;;;;;;-2.50;99.90;;;;;;5090134;28;19904;-70
2023/01/18 00:45:13;;;;;;;;;;;-2.50;99.90;;;;;;5083530;28;20386;-70
2023/01/18 00:47:39;;;;;;;;;;;-2.50;99.90;;;;;;5069555;28;19908;-69
2023/01/18 00:50:04;;;;;;;;;;;-2.50;99.90;;;;;;5070827;28;19912;-70
2023/01/18 00:52:30;;;;;;;;;;;-2.50;99.90;;;;;;5070195;28;20011;-70
2023/01/18 00:54:55;;;;;;;;;;;-2.60;99.90;;;;;;5068786;28;19904;-70
2023/01/18 00:57:21;;;;;;;;;;;-2.60;99.90;;;;;;5070121;28;20268;-71
2023/01/18 00:59:46;;;;;;;;;;;-2.50;99.90;;;;;;5070742;28;19909;-70
2023/01/18 01:02:12;;;;;;;;;;;-2.50;99.90;;;;;;5070596;28;19911;-71
2023/01/18 01:07:22;;;;;;;;;;;-2.60;99.90;;;;;;5069677;28;19912;-71
2023/01/18 01:09:48;;;;;;;;;;;-2.50;99.90;;;;;;5071183;28;19904;-71
2023/01/18 01:26:08;;;;;;;;;;;-2.60;99.90;;;;;;5073824;28;19957;-71
2023/01/18 01:28:37;;;;;;;;;;;-2.60;99.90;;;;;;5070723;28;19904;-71
2023/01/18 01:31:03;;;;;;;;;;;-2.50;99.90;;;;;;5069682;28;19908;-71
2023/01/18 01:33:29;;;;;;;;;;;-2.40;99.90;;;;;;5069860;28;19920;-71
2023/01/18 01:35:55;;;;;;;;;;;-2.60;99.90;;;;;;5070438;28;19911;-71
2023/01/18 01:38:21;;;;;;;;;;;-2.60;99.90;;;;;;5069480;28;19904;-70
2023/01/18 01:41:25;;;;;;;;;;;-2.70;99.90;;;;;;5070824;28;19934;-70
2023/01/18 01:43:52;;;;;;;;;;;-2.70;99.90;;;;;;5010436;28;19921;-70
2023/01/18 01:46:26;;;;;;;;;;;-2.70;99.90;;;;;;5011040;28;19968;-70
2023/01/18 01:49:01;;;;;;;;;;;-2.70;99.90;;;;;;5011463;28;19915;-70
2023/01/18 01:51:26;;;;;;;;;;;-2.80;99.90;;;;;;5010340;28;19996;-70
2023/01/18 01:53:52;;;;;;;;;;;-2.80;99.90;;;;;;5011715;28;20509;-70
2023/01/18 01:56:18;;;;;;;;;;;-2.70;99.90;;;;;;5010910;28;19940;-70
2023/01/18 01:58:46;;;;;;;;;;;-2.80;99.90;;;;;;5011564;28;19944;-70
2023/01/18 02:01:12;;;;;;;;;;;-2.70;99.90;;;;;;5010798;28;19906;-70
2023/01/18 02:03:39;;;;;;;;;;;-2.70;99.90;;;;;;5011322;28;20385;-71
2023/01/18 02:06:12;;;;;;;;;;;-2.70;99.90;;;;;;5010524;28;20337;-71
2023/01/18 02:08:37;;;;;;;;;;;-1.70;99.90;;;;;;5011351;28;19909;-71
2023/01/18 02:11:03;;;;;;;;;;;-2.70;99.90;;;;;;4994580;28;19905;-71
2023/01/18 02:13:29;;;;;;;;;;;-1.80;99.90;;;;;;5013358;28;20381;-71
2023/01/18 02:16:03;;;;;;;;;;;-2.90;99.90;;;;;;5074351;28;19908;-71
2023/01/18 02:18:58;;;;;;;;;;;-2.80;99.90;;;;;;5091686;28;19999;-71
2023/01/18 02:21:23;;;;;;;;;;;-2.80;99.90;;;;;;5058392;28;19908;-71
2023/01/18 02:24:11;;;;;;;;;;;-2.80;99.90;;;;;;5078950;28;20376;-71
2023/01/18 02:26:52;;;;;;;;;;;-2.80;99.90;;;;;;5073325;28;19951;-71
2023/01/18 02:29:18;;;;;;;;;;;-2.90;99.90;;;;;;5072958;28;19908;-71
2023/01/18 02:32:03;;;;;;;;;;;-2.80;99.90;;;;;;5073948;28;20266;-71
2023/01/18 02:34:34;;;;;;;;;;;-2.90;99.90;;;;;;5077796;28;19908;-71
2023/01/18 02:37:04;;;;;;;;;;;-2.80;99.90;;;;;;5078773;28;19991;-71
2023/01/18 02:39:37;;;;;;;;;;;-2.80;99.90;;;;;;5074010;28;20513;-72
2023/01/18 02:47:59;;;;;;;;;;;-2.70;99.90;;;;;;5073868;28;20011;-71
2023/01/18 02:50:26;;;;;;;;;;;-2.70;99.90;;;;;;5074498;28;19999;-71
2023/01/18 02:52:52;;;;;;;;;;;-2.70;99.90;;;;;;5085566;28;19915;-71
2023/01/18 02:55:23;;;;;;;;;;;-2.80;99.90;;;;;;5086566;28;19904;-71
2023/01/18 02:57:50;;;;;;;;;;;-2.80;99.90;;;;;;5073778;28;19905;-71
2023/01/18 03:00:17;;;;;;;;;;;-2.80;99.90;;;;;;5073912;28;19908;-71
2023/01/18 03:02:45;;;;;;;;;;;-2.10;99.90;;;;;;5080429;28;19912;-70
2023/01/18 03:05:10;;;;;;;;;;;-2.80;99.90;;;;;;5083894;28;19908;-70
2023/01/18 03:07:51;;;;;;;;;;;-2.80;99.90;;;;;;5074035;28;19908;-70
2023/01/18 03:10:16;;;;;;;;;;;-2.80;99.90;;;;;;5073078;28;19995;-70
2023/01/18 03:12:55;;;;;;;;;;;-2.80;99.90;;;;;;5072331;28;20000;-70
2023/01/18 03:15:23;;;;;;;;;;;-2.80;99.90;;;;;;5081727;28;19904;-70
2023/01/18 03:17:50;;;;;;;;;;;-2.70;99.90;;;;;;5087381;28;19912;-70
2023/01/18 03:20:18;;;;;;;;;;;-2.70;99.90;;;;;;5074324;28;19904;-70
2023/01/18 03:25:35;;;;;;;;;;;-2.80;99.90;;;;;;5077314;28;19957;-70
2023/01/18 03:33:42;;;;;;;;;;;-2.80;99.90;;;;;;5076691;28;20279;-70
2023/01/18 03:36:10;;;;;;;;;;;-2.90;99.90;;;;;;5091017;28;19907;-70
2023/01/18 03:38:36;;;;;;;;;;;-3.00;99.90;;;;;;5080175;28;19999;-70
2023/01/18 03:41:02;;;;;;;;;;;-3.00;99.90;;;;;;5075076;28;20022;-70
2023/01/18 03:43:35;;;;;;;;;;;-3.00;99.90;;;;;;5077651;28;20442;-69
2023/01/18 03:46:00;;;;;;;;;;;-3.10;99.90;;;;;;5083287;28;19911;-71
2023/01/18 03:48:26;;;;;;;;;;;-3.10;99.90;;;;;;5079202;28;19908;-71
2023/01/18 03:50:55;;;;;;;;;;;-3.10;99.90;;;;;;5073794;28;19908;-71
2023/01/18 03:53:33;;;;;;;;;;;-3.10;99.90;;;;;;5078729;28;19923;-71
2023/01/18 03:56:03;;;;;;;;;;;-3.10;99.90;;;;;;5080890;28;19912;-71
2023/01/18 03:58:31;;;;;;;;;;;-3.10;99.90;;;;;;5076458;28;20273;-71
2023/01/18 04:00:56;;;;;;;;;;;-3.20;99.90;;;;;;5075684;28;19909;-71
2023/01/18 04:03:22;;;;;;;;;;;-3.20;99.90;;;;;;5076046;28;20272;-71
2023/01/18 04:05:48;;;;;;;;;;;-3.20;99.90;;;;;;5075783;28;20282;-71
2023/01/18 04:08:14;;;;;;;;;;;-3.20;99.90;;;;;;5075570;28;19948;-71
2023/01/18 04:10:39;;;;;;;;;;;-3.20;99.90;;;;;;5074377;28;20069;-71
2023/01/18 04:13:05;;;;;;;;;;;-3.30;99.90;;;;;;5069738;28;20408;-71
2023/01/18 04:15:30;;;;;;;;;;;-3.30;99.90;;;;;;5081968;28;19911;-71
2023/01/18 04:17:55;;;;;;;;;;;-3.30;99.90;;;;;;5086423;28;19979;-70
2023/01/18 04:20:21;;;;;;;;;;;-3.20;99.90;;;;;;5081622;28;19911;-70
2023/01/18 04:22:51;;;;;;;;;;;-3.30;99.90;;;;;;5090269;28;19908;-70
2023/01/18 04:25:16;;;;;;;;;;;-3.30;99.90;;;;;;5090197;28;19915;-70
2023/01/18 04:27:42;;;;;;;;;;;-3.30;99.90;;;;;;5090189;28;19904;-70
2023/01/18 04:30:07;;;;;;;;;;;-3.30;99.90;;;;;;5090261;28;19910;-70
2023/01/18 04:32:33;;;;;;;;;;;-3.30;99.90;;;;;;5088378;28;20360;-71
2023/01/18 04:34:58;;;;;;;;;;;-3.30;99.90;;;;;;5090386;28;20284;-70
2023/01/18 04:37:29;;;;;;;;;;;-3.10;99.90;;;;;;5088929;28;19904;-70
2023/01/18 04:39:55;;;;;;;;;;;-3.30;99.90;;;;;;5090474;28;19912;-70
2023/01/18 04:42:20;;;;;;;;;;;-3.30;99.90;;;;;;5089316;28;20368;-70
2023/01/18 04:44:46;;;;;;;;;;;-3.20;99.90;;;;;;5089455;28;19908;-71
2023/01/18 04:47:12;;;;;;;;;;;-1.60;99.90;;;;;;5077086;28;20433;-70
2023/01/18 04:49:37;;;;;;;;;;;-3.20;99.90;;;;;;5078773;28;20429;-70
2023/01/18 04:52:02;;;;;;;;;;;-3.10;99.90;;;;;;5070983;28;19915;-70
2023/01/18 04:54:28;;;;;;;;;;;-3.10;99.90;;;;;;5070495;28;19958;-70
2023/01/18 04:56:53;;;;;;;;;;;-3.10;99.90;;;;;;5071040;28;19995;-70
2023/01/18 04:59:19;;;;;;;;;;;-3.00;99.90;;;;;;5069949;28;19911;-70
2023/01/18 05:01:44;;;;;;;;;;;-3.00;99.90;;;;;;5071741;28;20376;-71
2023/01/18 05:04:10;;;;;;;;;;;-3.30;99.90;;;;;;5070429;28;20012;-70
2023/01/18 05:06:35;;;;;;;;;;;-3.10;99.90;;;;;;5070990;28;19908;-70
2023/01/18 05:09:01;;;;;;;;;;;-3.20;99.90;;;;;;5070905;28;20378;-70
2023/01/18 05:11:26;;;;;;;;;;;-3.20;99.90;;;;;;5070380;28;20003;-70
2023/01/18 05:13:51;;;;;;;;;;;-3.20;99.90;;;;;;5081043;28;19912;-71
2023/01/18 05:16:18;;;;;;;;;;;-3.30;99.90;;;;;;5076408;28;19926;-70
2023/01/18 05:18:44;;;;;;;;;;;-3.40;99.90;;;;;;5093457;28;19911;-70
2023/01/18 05:21:10;;;;;;;;;;;-3.30;99.90;;;;;;5080440;28;19904;-70
2023/01/18 05:23:35;;;;;;;;;;;-3.40;99.90;;;;;;5093186;28;19907;-70
2023/01/18 05:26:02;;;;;;;;;;;-3.30;99.90;;;;;;5093942;28;19911;-70
2023/01/18 05:28:27;;;;;;;;;;;-3.40;99.90;;;;;;5092856;28;19915;-70
2023/01/18 05:30:53;;;;;;;;;;;-3.40;99.90;;;;;;5093874;28;20286;-70
2023/01/18 05:33:20;;;;;;;;;;;-3.40;99.90;;;;;;5090131;28;20320;-70
2023/01/18 05:35:48;;;;;;;;;;;-3.40;99.90;;;;;;5083229;28;19908;-70
2023/01/18 05:38:14;;;;;;;;;;;-3.50;99.90;;;;;;5086422;28;19911;-70
2023/01/18 05:40:41;;;;;;;;;;;-3.40;99.90;;;;;;5082669;28;19904;-70
2023/01/18 05:43:06;;;;;;;;;;;-3.40;99.90;;;;;;5085656;28;19920;-70
2023/01/18 05:45:32;;;;;;;;;;;-3.60;99.90;;;;;;5082161;28;19911;-70
2023/01/18 05:47:58;;;;;;;;;;;-3.50;99.90;;;;;;5086391;28;20367;-70
2023/01/18 05:50:24;;;;;;;;;;;-3.60;99.90;;;;;;5082263;28;20277;-70
2023/01/18 05:52:49;;;;;;;;;;;-3.60;99.90;;;;;;5085300;28;19965;-70
2023/01/18 05:55:14;;;;;;;;;;;-3.60;99.90;;;;;;5078556;28;19927;-70
2023/01/18 05:57:40;;;;;;;;;;;-3.50;99.90;;;;;;5077891;28;19904;-70
2023/01/18 06:00:06;;;;;;;;;;;-3.50;99.90;;;;;;5077385;28;19912;-71
2023/01/18 06:02:31;;;;;;;;;;;-3.60;99.90;;;;;;5079649;28;19939;-70
2023/01/18 06:04:57;;;;;;;;;;;-3.60;99.90;;;;;;5079997;28;19911;-72
2023/01/18 06:07:22;;;;;;;;;;;-3.60;99.90;;;;;;5079418;28;19905;-70
2023/01/18 06:09:47;;;;;;;;;;;-3.60;99.90;;;;;;5080202;28;19905;-70
2023/01/18 06:12:13;;;;;;;;;;;-3.50;99.90;;;;;;5072494;28;20366;-70
2023/01/18 06:14:38;;;;;;;;;;;-3.60;99.90;;;;;;5073623;28;19905;-70
2023/01/18 06:17:05;;;;;;;;;;;-3.50;99.90;;;;;;5073559;28;19911;-70
2023/01/18 06:19:30;;;;;;;;;;;-3.50;99.90;;;;;;5073909;28;20273;-70
2023/01/18 06:21:56;;;;;;;;;;;-3.60;99.90;;;;;;5073905;28;19908;-71
2023/01/18 06:24:21;;;;;;;;;;;-3.60;99.90;;;;;;5073734;28;20367;-70
2023/01/18 06:26:47;;;;;;;;;;;-3.60;99.90;;;;;;5073430;28;20327;-71
2023/01/18 06:29:12;;;;;;;;;;;-3.60;99.90;;;;;;5073246;28;19904;-71
2023/01/18 06:31:38;;;;;;;;;;;-3.60;99.90;;;;;;5074167;28;19972;-70
2023/01/18 06:34:08;;;;;;;;;;;-3.70;99.90;;;;;;5083256;28;19914;-70
2023/01/18 06:36:37;;;;;;;;;;;-3.70;99.90;;;;;;5084565;28;20284;-71
2023/01/18 06:39:02;;;;;;;;;;;-3.60;99.90;;;;;;5075469;28;20273;-70
2023/01/18 06:41:28;;;;;;;;;;;-3.60;99.90;;;;;;5072650;28;19920;-70
2023/01/18 06:43:53;;;;;;;;;;;-3.60;99.90;;;;;;5074429;28;20316;-70
2023/01/18 06:46:19;;;;;;;;;;;-3.70;99.90;;;;;;5072898;28;19927;-70
2023/01/18 06:48:44;;;;;;;;;;;-3.70;99.90;;;;;;5073858;28;19904;-70
2023/01/18 06:51:11;;;;;;;;;;;-3.70;99.90;;;;;;5083673;28;19943;-70
2023/01/18 06:53:37;;;;;;;;;;;-3.70;99.90;;;;;;5075170;28;19952;-71
2023/01/18 06:56:02;;;;;;;;;;;-3.70;99.90;;;;;;5080927;28;19915;-71
2023/01/18 06:58:31;;;;;;;;;;;-3.60;99.90;;;;;;5087569;28;19904;-71
2023/01/18 07:00:58;;;;;;;;;;;-3.50;99.90;;;;;;5072965;28;19909;-70
2023/01/18 07:03:24;;;;;;;;;;;-3.50;99.90;;;;;;5076095;28;19912;-69
2023/01/18 07:05:51;;;;;;;;;;;-3.60;99.90;;;;;;5072690;28;19911;-69
2023/01/18 07:08:19;;;;;;;;;;;-3.50;99.90;;;;;;5072108;28;19995;-69
2023/01/18 07:10:45;;;;;;;;;;;-3.30;99.90;;;;;;5071999;28;19904;-69
2023/01/18 07:13:11;;;;;;;;;;;-3.30;99.90;;;;;;5071864;28;19912;-69
2023/01/18 07:15:37;;;;;;;;;;;-3.50;99.90;;;;;;5084713;28;19953;-69
2023/01/18 07:18:02;;;;;;;;;;;-3.50;99.90;;;;;;5072524;28;19987;-69
2023/01/18 07:20:28;;;;;;;;;;;-3.50;99.90;;;;;;5072113;28;20361;-68
2023/01/18 07:22:53;;;;;;;;;;;-3.50;99.90;;;;;;5072693;28;19908;-68
2023/01/18 07:25:19;;;;;;;;;;;-3.50;99.90;;;;;;5071358;28;19991;-68
2023/01/18 07:27:47;;;;;;;;;;;-3.50;99.90;;;;;;5073364;28;19905;-68
2023/01/18 07:30:13;;;;;;;;;;;-3.60;99.90;;;;;;5084690;28;19915;-69
2023/01/18 07:32:39;;;;;;;;;;;-3.60;99.90;;;;;;5074606;28;19919;-68
2023/01/18 07:35:05;;;;;;;;;;;-3.60;99.90;;;;;;5073528;28;19904;-69
2023/01/18 07:37:30;;;;;;;;;;;-3.50;99.90;;;;;;5080384;28;19908;-68
2023/01/18 07:39:55;;;;;;;;;;;-3.60;99.90;;;;;;5072626;28;19942;-68
2023/01/18 07:42:21;;;;;;;;;;;-3.50;99.90;;;;;;5073601;28;19923;-68
2023/01/18 07:44:46;;;;;;;;;;;-3.50;99.90;;;;;;5080485;28;19912;-69
2023/01/18 07:47:12;;;;;;;;;;;-3.50;99.90;;;;;;5099843;28;19907;-68
2023/01/18 07:49:37;;;;;;;;;;;-3.50;99.90;;;;;;5102098;28;19915;-68
2023/01/18 07:52:03;;;;;;;;;;;-3.40;99.90;;;;;;5092730;28;19915;-68
2023/01/18 07:54:28;;;;;;;;;;;-3.40;99.90;;;;;;5090416;28;19904;-68
2023/01/18 07:56:54;;;;;;;;;;;-3.20;99.90;;;;;;5090240;28;20360;-68
2023/01/18 07:59:19;;;;;;;;;;;-3.20;99.90;;;;;;5090222;28;19939;-68
2023/01/18 08:01:45;;;;;;;;;;;-3.30;99.90;;;;;;5089522;28;20335;-68
2023/01/18 08:04:10;;;;;;;;;;;-3.20;99.90;;;;;;5090185;28;19904;-69
2023/01/18 08:06:36;;;;;;;;;;;-3.20;99.90;;;;;;5090038;28;19908;-69
2023/01/18 08:09:01;;;;;;;;;;;-3.20;99.90;;;;;;5090370;28;20036;-68
2023/01/18 08:11:27;;;;;;;;;;;-3.20;99.90;;;;;;5077805;28;19911;-69
2023/01/18 08:13:52;;;;;;;;;;;-3.20;99.90;;;;;;5085054;28;20353;-69
2023/01/18 08:16:18;;;;;;;;;;;-3.10;99.90;;;;;;5078940;28;19908;-69
2023/01/18 08:18:44;;;;;;;;;;;-3.30;99.90;;;;;;5090366;28;19911;-68
2023/01/18 08:21:11;;;;;;;;;;;-3.00;99.90;;;;;;5092968;28;19908;-69
2023/01/18 08:23:37;;;;;;;;;;;-3.00;99.90;;;;;;5079540;28;19989;-69
2023/01/18 08:26:03;;;;;;;;;;;-2.90;99.90;;;;;;5072244;28;19987;-69
2023/01/18 08:28:29;;;;;;;;;;;-2.60;99.90;;;;;;5073005;28;20078;-69
2023/01/18 08:31:04;;;;;;;;;;;-2.80;99.90;;;;;;5083151;28;19913;-69
2023/01/18 08:33:29;;;;;;;;;;;-2.80;99.90;;;;;;5080475;28;20183;-69
2023/01/18 08:35:55;;;;;;;;;;;-2.80;99.90;;;;;;5083450;28;20451;-69
2023/01/18 08:38:20;;;;;;;;;;;-2.70;99.90;;;;;;5084599;28;19973;-69
2023/01/18 08:40:46;;;;;;;;;;;-2.70;99.90;;;;;;5077090;28;20339;-69
2023/01/18 08:43:11;;;;;;;;;;;-2.70;99.90;;;;;;5084319;28;19916;-69
2023/01/18 08:45:37;;;;;;;;;;;-1.50;99.90;;;;;;5084531;28;19912;-69
2023/01/18 08:48:04;;;;;;;;;;;-2.60;99.90;;;;;;5078934;28;19966;-68
2023/01/18 08:50:31;;;;;;;;;;;-2.70;99.90;;;;;;5081712;28;19911;-69
2023/01/18 08:52:58;;;;;;;;;;;-2.60;99.90;;;;;;5084806;28;20379;-69
2023/01/18 08:55:24;;;;;;;;;;;-2.60;99.90;;;;;;5068821;28;19919;-69
2023/01/18 08:57:52;;;;;;;;;;;-2.60;99.90;;;;;;5087680;28;19908;-69
2023/01/18 09:00:17;;;;;;;;;;;-2.40;99.90;;;;;;5081696;28;19962;-69
2023/01/18 09:02:43;;;;;;;;;;;-2.40;99.90;;;;;;5072612;28;20541;-69
2023/01/18 09:05:08;;;;;;;;;;;-2.30;99.90;;;;;;5083660;28;19904;-69
2023/01/18 09:07:34;;;;;;;;;;;-2.30;99.90;;;;;;5089039;28;19904;-69
2023/01/18 09:09:59;;;;;;;;;;;-2.20;99.90;;;;;;5083515;28;19961;-69
2023/01/18 09:12:25;;;;;;;;;;;-2.20;99.90;;;;;;5086564;28;20296;-69
2023/01/18 09:14:50;;;;;;;;;;;-2.20;99.90;;;;;;5087508;28;19954;-69
2023/01/18 09:17:20;;;;;;;;;;;-2.10;99.90;;;;;;5099515;28;19916;-70
2023/01/18 09:19:45;;;;;;;;;;;-2.00;99.90;;;;;;5080929;28;19935;-69
2023/01/18 09:22:11;;;;;;;;;;;-1.90;99.90;;;;;;5080919;28;20250;-69
2023/01/18 09:24:37;;;;;;;;;;;-1.90;99.90;;;;;;5085435;28;19911;-68
2023/01/18 09:27:03;;;;;;;;;;;-1.70;99.90;;;;;;5088644;28;19911;-69
2023/01/18 09:29:30;;;;;;;;;;;-1.70;99.90;;;;;;5085135;28;19912;-68
2023/01/18 09:31:55;;;;;;;;;;;-1.50;99.90;;;;;;5089577;28;19908;-69
2023/01/18 09:34:20;;;;;;;;;;;-1.40;99.90;;;;;;5097776;28;19914;-68
2023/01/18 09:36:50;;;;;;;;;;;-1.30;99.90;;;;;;5086200;28;19904;-68
2023/01/18 09:39:16;;;;;;;;;;;-1.20;99.90;;;;;;5084460;28;19926;-69
2023/01/18 09:41:43;;;;;;;;;;;-1.00;99.90;;;;;;5086953;28;19916;-68
2023/01/18 09:44:16;;;;;;;;;;;-0.90;99.90;;;;;;5085772;28;19924;-68
2023/01/18 09:46:42;;;;;;;;;;;-0.60;99.90;;;;;;5087159;28;20021;-68
2023/01/18 09:49:17;;;;;;;;;;;-0.50;99.90;;;;;;5081205;28;20330;-68
2023/01/18 09:51:42;;;;;;;;;;;-0.40;99.90;;;;;;5071614;28;19904;-68
2023/01/18 09:54:18;;;;;;;;;;;-0.50;99.90;;;;;;5071396;28;19911;-68
2023/01/18 09:56:48;;;;;;;;;;;-0.30;99.90;;;;;;5076373;28;19908;-68
2023/01/18 09:59:13;;;;;;;;;;;-0.10;99.90;;;;;;5083632;28;20471;-68
2023/01/18 10:01:39;;;;;;;;;;;0.00;99.90;;;;;;5083272;28;19911;-69
2023/01/18 10:04:16;;;;;;;;;;;0.30;99.90;;;;;;5076753;28;19905;-68
2023/01/18 10:06:52;;;;;;;;;;;0.40;99.90;;;;;;5084191;28;20280;-68
2023/01/18 10:09:19;;;;;;;;;;;0.50;99.90;;;;;;5084351;28;19908;-68
2023/01/18 10:11:49;;;;;;;;;;;0.50;99.90;;;;;;5073320;28;19965;-68
2023/01/18 10:14:23;;;;;;;;;;;0.50;99.90;;;;;;5071767;28;20318;-68
2023/01/18 10:16:54;;;;;;;;;;;0.50;99.90;;;;;;5071005;28;19954;-68
2023/01/18 10:19:23;;;;;;;;;;;0.60;99.90;;;;;;5084450;28;20744;-68
2023/01/18 10:21:54;;;;;;;;;;;0.60;99.90;;;;;;5093268;28;19911;-68
2023/01/18 10:24:39;;;;;;;;;;;0.70;99.90;;;;;;5086989;28;20376;-68
2023/01/18 10:27:15;;;;;;;;;;;0.80;99.90;;;;;;5079379;28;19904;-68
2023/01/18 10:29:43;;;;;;;;;;;0.80;99.90;;;;;;5096980;28;19994;-68
2023/01/18 10:32:11;;;;;;;;;;;1.00;99.90;;;;;;5089882;28;20015;-68
2023/01/18 10:34:44;;;;;;;;;;;1.10;99.90;;;;;;5088548;28;20113;-67
2023/01/18 10:37:28;;;;;;;;;;;1.30;99.90;;;;;;5091265;28;19904;-68
2023/01/18 10:40:01;;;;;;;;;;;1.20;99.90;;;;;;5094537;28;20268;-68
2023/01/18 10:42:44;;;;;;;;;;;1.40;99.90;;;;;;5088614;28;19927;-68
2023/01/18 10:45:18;;;;;;;;;;;1.30;99.90;;;;;;5087709;28;19910;-68
2023/01/18 10:47:45;;;;;;;;;;;1.40;99.90;;;;;;5091649;28;20436;-69
2023/01/18 10:50:12;;;;;;;;;;;1.40;99.90;;;;;;5097336;28;19951;-68
2023/01/18 10:52:37;;;;;;;;;;;1.40;99.90;;;;;;5091176;28;19985;-68
2023/01/18 10:55:06;;;;;;;;;;;1.40;99.90;;;;;;5105992;28;20318;-68
2023/01/18 10:57:52;;;;;;;;;;;1.40;99.90;;;;;;5102106;27;19918;-67
2023/01/18 11:00:20;;;;;;;;;;;1.40;99.90;;;;;;5084372;28;19907;-67
2023/01/18 11:02:46;;;;;;;;;;;1.30;99.90;;;;;;5091332;28;19912;-67
2023/01/18 11:05:18;;;;;;;;;;;1.40;99.90;;;;;;5090602;28;20272;-67
2023/01/18 11:07:43;;;;;;;;;;;1.40;99.90;;;;;;5088655;28;19911;-67
2023/01/18 11:10:22;;;;;;;;;;;1.40;99.90;;;;;;5088821;28;19904;-67
2023/01/18 11:12:51;;;;;;;;;;;1.40;99.90;;;;;;5083179;28;19923;-67
2023/01/18 11:15:16;;;;;;;;;;;1.60;99.90;;;;;;5086735;28;19964;-67
2023/01/18 11:17:43;;;;;;;;;;;1.50;99.90;;;;;;5086848;28;19912;-67
2023/01/18 11:20:18;;;;;;;;;;;1.50;99.90;;;;;;5089075;28;19911;-67
2023/01/18 11:22:53;;;;;;;;;;;1.60;99.90;;;;;;5081374;28;20017;-67
2023/01/18 11:25:18;;;;;;;;;;;1.70;99.90;;;;;;5094051;28;19903;-67
2023/01/18 11:27:45;;;;;;;;;;;1.70;99.90;;;;;;5094273;28;20391;-67
2023/01/18 11:30:19;;;;;;;;;;;1.80;99.90;;;;;;5095340;28;19912;-66
2023/01/18 11:32:45;;;;;;;;;;;1.80;99.90;;;;;;5098735;28;19915;-67
2023/01/18 11:35:19;;;;;;;;;;;1.80;99.90;;;;;;5104528;28;20292;-67
2023/01/18 11:37:45;;;;;;;;;;;1.90;99.90;;;;;;5091417;28;19904;-67
2023/01/18 11:40:21;;;;;;;;;;;1.90;99.90;;;;;;5090165;28;20379;-66
2023/01/18 11:42:48;;;;;;;;;;;1.90;99.90;;;;;;5082493;28;19912;-67
2023/01/18 11:45:19;;;;;;;;;;;1.80;99.90;;;;;;5092417;28;20068;-66
2023/01/18 11:47:58;;;;;;;;;;;2.00;99.90;;;;;;5089475;28;20318;-67
2023/01/18 11:50:30;;;;;;;;;;;2.10;99.90;;;;;;5087392;28;19923;-67
2023/01/18 11:53:14;;;;;;;;;;;1.90;99.90;;;;;;5093052;28;19915;-67
2023/01/18 11:55:54;;;;;;;;;;;1.90;99.90;;;;;;5078607;28;20357;-67
2023/01/18 11:58:27;;;;;;;;;;;2.00;99.90;;;;;;5086470;28;19908;-66
2023/01/18 12:01:02;;;;;;;;;;;2.00;99.90;;;;;;5089677;28;19904;-67
2023/01/18 12:03:34;;;;;;;;;;;2.00;99.90;;;;;;5088132;28;19912;-67
2023/01/18 12:06:05;;;;;;;;;;;2.10;99.90;;;;;;5090658;28;19957;-69
2023/01/18 12:08:37;;;;;;;;;;;2.10;99.90;;;;;;5102808;28;19927;-67
2023/01/18 12:11:02;;;;;;;;;;;2.20;99.90;;;;;;5090351;28;19905;-67
2023/01/18 12:13:34;;;;;;;;;;;2.20;99.90;;;;;;5078056;28;19915;-67
2023/01/18 12:16:02;;;;;;;;;;;2.40;99.90;;;;;;5088260;28;20280;-67
2023/01/18 12:18:46;;;;;;;;;;;2.30;99.90;;;;;;5089066;28;19919;-67
2023/01/18 12:21:13;;;;;;;;;;;2.30;99.90;;;;;;5099771;28;20277;-68
2023/01/18 12:23:44;;;;;;;;;;;2.30;99.90;;;;;;5083171;28;20375;-69
2023/01/18 12:26:29;;;;;;;;;;;2.10;99.90;;;;;;5088308;28;19911;-67
2023/01/18 12:29:00;;;;;;;;;;;2.30;99.90;;;;;;5085235;28;19916;-67
2023/01/18 12:31:42;;;;;;;;;;;2.40;99.90;;;;;;5080299;28;19961;-68
2023/01/18 12:34:11;;;;;;;;;;;2.50;99.90;;;;;;5072051;28;19919;-67
2023/01/18 12:36:37;;;;;;;;;;;2.50;99.90;;;;;;5075046;28;19913;-67
2023/01/18 12:39:16;;;;;;;;;;;2.50;99.90;;;;;;5075929;28;19905;-68
2023/01/18 12:41:46;;;;;;;;;;;2.60;99.90;;;;;;5077068;28;20372;-68
2023/01/18 12:44:37;;;;;;;;;;;2.60;99.90;;;;;;5082315;28;19916;-68
2023/01/18 12:47:21;;;;;;;;;;;2.60;99.90;;;;;;5073966;28;20003;-67
2023/01/18 12:49:49;;;;;;;;;;;2.60;99.90;;;;;;5076893;28;19904;-66
2023/01/18 12:52:17;;;;;;;;;;;2.70;99.90;;;;;;5080153;28;19923;-68
2023/01/18 12:54:47;;;;;;;;;;;3.90;99.90;;;;;;5078700;28;19910;-66
2023/01/18 12:57:13;;;;;;;;;;;2.70;99.90;;;;;;5084677;28;20340;-67
2023/01/18 12:59:46;;;;;;;;;;;2.80;99.90;;;;;;5080175;28;19908;-68
2023/01/18 13:02:21;;;;;;;;;;;2.70;99.90;;;;;;5074563;28;19911;-68
2023/01/18 13:04:51;;;;;;;;;;;2.80;99.90;;;;;;5074574;28;19953;-68
2023/01/18 13:07:20;;;;;;;;;;;2.70;99.90;;;;;;5079860;28;20014;-68
2023/01/18 13:09:48;;;;;;;;;;;2.80;99.90;;;;;;5087325;28;19939;-68
2023/01/18 13:12:14;;;;;;;;;;;2.80;99.90;;;;;;5090053;28;20357;-69
2023/01/18 13:14:40;;;;;;;;;;;2.60;99.90;;;;;;5085310;28;19905;-68
2023/01/18 13:17:09;;;;;;;;;;;2.80;99.90;;;;;;5081277;28;19904;-68
2023/01/18 13:19:38;;;;;;;;;;;2.80;99.90;;;;;;5093679;28;19960;-69
2023/01/18 13:22:09;;;;;;;;;;;2.80;99.90;;;;;;5098057;28;20288;-69
2023/01/18 13:25:01;;;;;;;;;;;2.80;99.90;;;;;;5098846;28;19908;-68
2023/01/18 13:27:26;;;;;;;;;;;2.80;99.90;;;;;;5067516;28;20410;-68
2023/01/18 13:29:52;;;;;;;;;;;2.70;99.90;;;;;;5100424;28;19904;-69
2023/01/18 13:32:23;;;;;;;;;;;2.90;99.90;;;;;;5104287;28;19963;-69
2023/01/18 13:35:23;;;;;;;;;;;2.80;99.90;;;;;;5109121;28;19904;-69
2023/01/18 13:37:50;;;;;;;;;;;2.80;99.90;;;;;;5051132;28;19910;-68
2023/01/18 13:40:19;;;;;;;;;;;2.90;99.90;;;;;;5096067;28;19958;-68
2023/01/18 13:42:44;;;;;;;;;;;3.00;99.90;;;;;;5102805;28;19916;-69
2023/01/18 13:45:13;;;;;;;;;;;3.00;99.90;;;;;;5101173;28;19908;-68
2023/01/18 13:47:41;;;;;;;;;;;3.10;99.90;;;;;;5104935;28;19911;-68
2023/01/18 13:50:25;;;;;;;;;;;3.00;99.90;;;;;;5104772;28;20348;-69
2023/01/18 13:53:10;;;;;;;;;;;2.90;99.90;;;;;;5103887;28;19918;-70
2023/01/18 13:55:36;;;;;;;;;;;3.10;99.90;;;;;;5104113;28;19916;-69
2023/01/18 13:58:01;;;;;;;;;;;3.10;99.90;;;;;;5100498;28;19926;-69
2023/01/18 14:00:27;;;;;;;;;;;3.60;99.90;;;;;;5099326;28;19964;-69
2023/01/18 14:03:01;;;;;;;;;;;3.20;99.90;;;;;;5096759;28;19934;-68
2023/01/18 14:05:33;;;;;;;;;;;3.30;99.90;;;;;;5096966;28;19904;-69
2023/01/18 14:08:00;;;;;;;;;;;4.50;99.90;;;;;;5082537;28;19966;-69
2023/01/18 14:10:30;;;;;;;;;;;3.30;99.90;;;;;;5080810;28;19908;-70
2023/01/18 14:12:56;;;;;;;;;;;3.50;99.90;;;;;;5076367;28;19916;-69
2023/01/18 14:15:41;;;;;;;;;;;3.40;99.90;;;;;;5092974;28;20406;-69
2023/01/18 14:18:21;;;;;;;;;;;3.50;99.90;;;;;;5064816;28;19915;-69
2023/01/18 14:20:53;;;;;;;;;;;4.70;99.90;;;;;;5101195;28;19911;-69
2023/01/18 14:23:21;;;;;;;;;;;3.50;99.90;;;;;;5083817;28;19946;-70
2023/01/18 14:25:52;;;;;;;;;;;3.50;99.90;;;;;;5077945;28;20327;-69
2023/01/18 14:28:21;;;;;;;;;;;3.70;99.90;;;;;;5090154;28;19915;-69
2023/01/18 14:30:47;;;;;;;;;;;3.60;99.90;;;;;;5088375;28;19918;-69
2023/01/18 14:33:14;;;;;;;;;;;3.70;99.90;;;;;;5074779;28;19908;-69
2023/01/18 14:35:47;;;;;;;;;;;3.70;99.90;;;;;;5082754;28;20445;-69
2023/01/18 14:38:13;;;;;;;;;;;3.70;99.90;;;;;;5099249;28;19908;-68
2023/01/18 14:40:42;;;;;;;;;;;3.60;99.90;;;;;;5092468;28;20341;-68
2023/01/18 14:43:26;;;;;;;;;;;3.70;99.90;;;;;;5110243;28;20364;-68
2023/01/18 14:46:23;;;;;;;;;;;3.70;99.90;;;;;;5095007;28;19914;-68
2023/01/18 14:48:50;;;;;;;;;;;3.60;99.90;;;;;;5046593;28;19990;-68
2023/01/18 14:51:17;;;;;;;;;;;3.60;99.90;;;;;;5105914;28;20327;-69
2023/01/18 14:53:45;;;;;;;;;;;3.60;99.90;;;;;;5106747;28;19918;-69
2023/01/18 14:56:10;;;;;;;;;;;3.50;99.90;;;;;;5098602;28;19949;-68
2023/01/18 14:58:38;;;;;;;;;;;3.40;99.90;;;;;;5086058;28;19912;-69
2023/01/18 15:01:04;;;;;;;;;;;3.50;99.90;;;;;;5102113;28;19945;-69
2023/01/18 15:03:29;;;;;;;;;;;3.40;99.90;;;;;;5103420;28;19908;-69